sensor_id;sensor_type;location;lat;lon;timestamp;pressure;altitude;pressure_sealevel;temperature;humidity
29909;BME280;36247;51.952;6.146;2022-09-09T00:00:24;100635.94;;;14.37;100.00
29909;BME280;36247;51.952;6.146;2022-09-09T00:03:14;100641.28;;;14.36;100.00
29909;BME280;36247;51.952;6.146;2022-09-09T00:05:57;100642.19;;;14.35;100.00
29909;BME280;36247;51.952;6.146;2022-09-09T00:08:33;100635.97;;;14.33;100.00
29909;BME280;36247;51.952;6.146;2022-09-09T00:11:05;100638.63;;;14.36;100.00
29909;BME280;36247;51.952;6.146;2022-09-09T00:14:03;100629.78;;;14.31;100.00
29909;BME280;36247;51.952;6.146;2022-09-09T00:16:37;100638.66;;;14.26;100.00
29909;BME280;36247;51.952;6.146;2022-09-09T00:19:14;100627.13;;;14.29;100.00
29909;BME280;36247;51.952;6.146;2022-09-09T00:22:14;100627.13;;;14.27;100.00
29909;BME280;36247;51.952;6.146;2022-09-09T00:24:45;100635.09;;;14.32;100.00
29909;BME280;36247;51.952;6.146;2022-09-09T00:30:18;100625.34;;;14.25;100.00
29909;BME280;36247;51.952;6.146;2022-09-09T00:32:53;100627.06;;;14.37;100.00
29909;BME280;36247;51.952;6.146;2022-09-09T00:37:53;100627.16;;;14.21;100.00
29909;BME280;36247;51.952;6.146;2022-09-09T00:40:33;100631.56;;;14.27;100.00
29909;BME280;36247;51.952;6.146;2022-09-09T00:43:28;100628.00;;;14.28;100.00
29909;BME280;36247;51.952;6.146;2022-09-09T00:46:21;100634.25;;;14.22;100.00
29909;BME280;36247;51.952;6.146;2022-09-09T00:57:32;100617.41;;;14.14;100.00
29909;BME280;36247;51.952;6.146;2022-09-09T01:02:39;100613.00;;;14.07;100.00
29909;BME280;36247;51.952;6.146;2022-09-09T01:05:27;100615.66;;;14.07;100.00
29909;BME280;36247;51.952;6.146;2022-09-09T01:07:56;100619.22;;;14.06;100.00
29909;BME280;36247;51.952;6.146;2022-09-09T01:10:49;100612.13;;;13.99;100.00
29909;BME280;36247;51.952;6.146;2022-09-09T01:13:35;100612.19;;;13.88;100.00
29909;BME280;36247;51.952;6.146;2022-09-09T01:16:08;100613.09;;;13.90;100.00
29909;BME280;36247;51.952;6.146;2022-09-09T01:18:46;100619.28;;;13.92;100.00
29909;BME280;36247;51.952;6.146;2022-09-09T01:21:23;100619.25;;;14.00;100.00
29909;BME280;36247;51.952;6.146;2022-09-09T01:23:57;100617.50;;;13.86;100.00
29909;BME280;36247;51.952;6.146;2022-09-09T01:26:39;100621.97;;;13.83;100.00
29909;BME280;36247;51.952;6.146;2022-09-09T01:34:24;100617.56;;;13.72;100.00
29909;BME280;36247;51.952;6.146;2022-09-09T01:36:59;100614.00;;;13.69;100.00
29909;BME280;36247;51.952;6.146;2022-09-09T01:39:28;100610.44;;;13.76;100.00
29909;BME280;36247;51.952;6.146;2022-09-09T01:41:59;100612.25;;;13.74;100.00
29909;BME280;36247;51.952;6.146;2022-09-09T01:44:27;100612.25;;;13.72;100.00
29909;BME280;36247;51.952;6.146;2022-09-09T01:46:53;100616.66;;;13.69;100.00
29909;BME280;36247;51.952;6.146;2022-09-09T01:49:20;100613.16;;;13.64;100.00
29909;BME280;36247;51.952;6.146;2022-09-09T01:51:50;100613.13;;;13.68;100.00
29909;BME280;36247;51.952;6.146;2022-09-09T01:54:23;100609.63;;;13.62;100.00
29909;BME280;36247;51.952;6.146;2022-09-09T01:57:09;100617.59;;;13.62;100.00
29909;BME280;36247;51.952;6.146;2022-09-09T02:02:30;100618.47;;;13.64;100.00
29909;BME280;36247;51.952;6.146;2022-09-09T02:05:21;100615.81;;;13.61;100.00
29909;BME280;36247;51.952;6.146;2022-09-09T02:08:00;100617.59;;;13.58;100.00
29909;BME280;36247;51.952;6.146;2022-09-09T02:10:55;100619.34;;;13.66;100.00
29909;BME280;36247;51.952;6.146;2022-09-09T02:13:37;100615.84;;;13.51;100.00
29909;BME280;36247;51.952;6.146;2022-09-09T02:16:26;100615.84;;;13.56;100.00
29909;BME280;36247;51.952;6.146;2022-09-09T02:19:00;100610.53;;;13.45;100.00
29909;BME280;36247;51.952;6.146;2022-09-09T02:21:37;100610.50;;;13.27;100.00
29909;BME280;36247;51.952;6.146;2022-09-09T02:24:07;100610.50;;;13.33;100.00
29909;BME280;36247;51.952;6.146;2022-09-09T02:26:42;100609.63;;;13.46;100.00
29909;BME280;36247;51.952;6.146;2022-09-09T02:29:17;100613.19;;;13.45;100.00
29909;BME280;36247;51.952;6.146;2022-09-09T02:31:47;100603.41;;;13.55;100.00
29909;BME280;36247;51.952;6.146;2022-09-09T02:34:21;100607.84;;;13.51;100.00
29909;BME280;36247;51.952;6.146;2022-09-09T02:36:50;100595.44;;;13.44;100.00
29909;BME280;36247;51.952;6.146;2022-09-09T02:39:18;100602.53;;;13.48;100.00
29909;BME280;36247;51.952;6.146;2022-09-09T02:41:44;100598.09;;;13.52;100.00
29909;BME280;36247;51.952;6.146;2022-09-09T02:44:15;100598.13;;;13.35;100.00
29909;BME280;36247;51.952;6.146;2022-09-09T02:52:19;100598.09;;;13.22;100.00
29909;BME280;36247;51.952;6.146;2022-09-09T02:54:47;100595.44;;;13.29;100.00
29909;BME280;36247;51.952;6.146;2022-09-09T02:57:26;100599.00;;;13.43;100.00
29909;BME280;36247;51.952;6.146;2022-09-09T02:59:53;100593.69;;;13.38;100.00
29909;BME280;36247;51.952;6.146;2022-09-09T03:02:22;100593.66;;;13.43;100.00
29909;BME280;36247;51.952;6.146;2022-09-09T03:04:53;100602.53;;;13.30;100.00
29909;BME280;36247;51.952;6.146;2022-09-09T03:07:19;100600.78;;;13.29;100.00
29909;BME280;36247;51.952;6.146;2022-09-09T03:09:45;100601.66;;;13.18;100.00
29909;BME280;36247;51.952;6.146;2022-09-09T03:12:11;100596.31;;;13.29;100.00
29909;BME280;36247;51.952;6.146;2022-09-09T03:14:38;100596.34;;;13.25;100.00
29909;BME280;36247;51.952;6.146;2022-09-09T03:17:05;100605.19;;;13.23;100.00
29909;BME280;36247;51.952;6.146;2022-09-09T03:19:35;100603.44;;;13.27;100.00
29909;BME280;36247;51.952;6.146;2022-09-09T03:22:03;100598.09;;;13.30;100.00
29909;BME280;36247;51.952;6.146;2022-09-09T03:24:30;100599.00;;;13.21;100.00
29909;BME280;36247;51.952;6.146;2022-09-09T03:26:56;100602.53;;;13.20;100.00
29909;BME280;36247;51.952;6.146;2022-09-09T03:29:22;100611.41;;;13.19;100.00
29909;BME280;36247;51.952;6.146;2022-09-09T03:31:50;100605.19;;;13.28;100.00
29909;BME280;36247;51.952;6.146;2022-09-09T03:34:16;100601.66;;;13.23;100.00
29909;BME280;36247;51.952;6.146;2022-09-09T03:36:42;100610.50;;;13.23;100.00
29909;BME280;36247;51.952;6.146;2022-09-09T03:39:07;100610.50;;;13.28;100.00
29909;BME280;36247;51.952;6.146;2022-09-09T03:41:34;100608.75;;;13.32;100.00
29909;BME280;36247;51.952;6.146;2022-09-09T03:44:01;100611.41;;;13.41;100.00
29909;BME280;36247;51.952;6.146;2022-09-09T03:46:30;100606.97;;;13.31;100.00
29909;BME280;36247;51.952;6.146;2022-09-09T03:48:58;100599.84;;;13.31;100.00
29909;BME280;36247;51.952;6.146;2022-09-09T03:51:23;100596.34;;;13.35;100.00
29909;BME280;36247;51.952;6.146;2022-09-09T03:53:49;100605.19;;;13.36;100.00
29909;BME280;36247;51.952;6.146;2022-09-09T03:56:15;100594.56;;;13.45;100.00
29909;BME280;36247;51.952;6.146;2022-09-09T03:58:41;100592.75;;;13.55;100.00
29909;BME280;36247;51.952;6.146;2022-09-09T04:01:10;100588.31;;;13.51;100.00
29909;BME280;36247;51.952;6.146;2022-09-09T04:03:40;100592.75;;;13.60;100.00
29909;BME280;36247;51.952;6.146;2022-09-09T04:06:08;100589.19;;;13.64;100.00
29909;BME280;36247;51.952;6.146;2022-09-09T04:08:35;100588.34;;;13.57;100.00
29909;BME280;36247;51.952;6.146;2022-09-09T04:11:02;100593.66;;;13.62;100.00
29909;BME280;36247;51.952;6.146;2022-09-09T04:13:36;100590.97;;;13.65;100.00
29909;BME280;36247;51.952;6.146;2022-09-09T04:16:09;100595.38;;;13.69;100.00
29909;BME280;36247;51.952;6.146;2022-09-09T04:18:36;100593.63;;;13.65;100.00
29909;BME280;36247;51.952;6.146;2022-09-09T04:21:03;100587.41;;;13.73;100.00
29909;BME280;36247;51.952;6.146;2022-09-09T04:23:30;100584.72;;;13.75;100.00
29909;BME280;36247;51.952;6.146;2022-09-09T04:25:58;100588.28;;;13.75;100.00
29909;BME280;36247;51.952;6.146;2022-09-09T04:28:28;100579.41;;;13.78;100.00
29909;BME280;36247;51.952;6.146;2022-09-09T04:30:54;100584.66;;;13.93;100.00
29909;BME280;36247;51.952;6.146;2022-09-09T04:33:20;100577.59;;;13.83;100.00
29909;BME280;36247;51.952;6.146;2022-09-09T04:35:49;100574.00;;;13.90;100.00
29909;BME280;36247;51.952;6.146;2022-09-09T04:38:17;100575.81;;;13.85;100.00
29909;BME280;36247;51.952;6.146;2022-09-09T04:40:46;100574.03;;;13.87;100.00
29909;BME280;36247;51.952;6.146;2022-09-09T04:43:12;100572.25;;;13.86;100.00
29909;BME280;36247;51.952;6.146;2022-09-09T04:45:41;100575.81;;;13.87;100.00
29909;BME280;36247;51.952;6.146;2022-09-09T04:48:07;100567.81;;;13.90;100.00
29909;BME280;36247;51.952;6.146;2022-09-09T04:50:33;100567.78;;;13.93;100.00
29909;BME280;36247;51.952;6.146;2022-09-09T04:53:05;100570.44;;;13.99;100.00
29909;BME280;36247;51.952;6.146;2022-09-09T04:55:33;100573.06;;;14.04;100.00
29909;BME280;36247;51.952;6.146;2022-09-09T04:58:05;100570.38;;;14.07;100.00
29909;BME280;36247;51.952;6.146;2022-09-09T05:00:32;100577.47;;;14.11;100.00
29909;BME280;36247;51.952;6.146;2022-09-09T05:03:03;100566.81;;;14.14;100.00
29909;BME280;36247;51.952;6.146;2022-09-09T05:05:29;100573.00;;;14.16;100.00
29909;BME280;36247;51.952;6.146;2022-09-09T05:08:04;100564.13;;;14.17;100.00
29909;BME280;36247;51.952;6.146;2022-09-09T05:10:30;100560.53;;;14.23;100.00
29909;BME280;36247;51.952;6.146;2022-09-09T05:12:56;100562.28;;;14.24;100.00
29909;BME280;36247;51.952;6.146;2022-09-09T05:15:25;100556.94;;;14.28;100.00
29909;BME280;36247;51.952;6.146;2022-09-09T05:17:51;100551.59;;;14.28;100.00
29909;BME280;36247;51.952;6.146;2022-09-09T05:20:18;100547.16;;;14.31;100.00
29909;BME280;36247;51.952;6.146;2022-09-09T05:22:44;100557.84;;;14.31;100.00
29909;BME280;36247;51.952;6.146;2022-09-09T05:25:09;100550.69;;;14.33;100.00
29909;BME280;36247;51.952;6.146;2022-09-09T05:27:35;100557.81;;;14.34;100.00
29909;BME280;36247;51.952;6.146;2022-09-09T05:30:01;100555.97;;;14.39;100.00
29909;BME280;36247;51.952;6.146;2022-09-09T05:32:27;100555.97;;;14.42;100.00
29909;BME280;36247;51.952;6.146;2022-09-09T05:34:58;100553.28;;;14.43;100.00
29909;BME280;36247;51.952;6.146;2022-09-09T05:37:24;100554.16;;;14.47;100.00
29909;BME280;36247;51.952;6.146;2022-09-09T05:39:49;100553.19;;;14.59;100.00
29909;BME280;36247;51.952;6.146;2022-09-09T05:42:16;100554.09;;;14.62;100.00
29909;BME280;36247;51.952;6.146;2022-09-09T05:44:44;100549.66;;;14.61;100.00
29909;BME280;36247;51.952;6.146;2022-09-09T05:47:10;100552.31;;;14.63;100.00
29909;BME280;36247;51.952;6.146;2022-09-09T05:49:35;100563.88;;;14.62;100.00
29909;BME280;36247;51.952;6.146;2022-09-09T05:52:01;100564.72;;;14.67;100.00
29909;BME280;36247;51.952;6.146;2022-09-09T05:54:29;100558.50;;;14.68;100.00
29909;BME280;36247;51.952;6.146;2022-09-09T05:56:55;100553.19;;;14.65;100.00
29909;BME280;36247;51.952;6.146;2022-09-09T05:59:21;100567.38;;;14.67;100.00
29909;BME280;36247;51.952;6.146;2022-09-09T06:01:50;100560.28;;;14.68;100.00
29909;BME280;36247;51.952;6.146;2022-09-09T06:04:35;100563.81;;;14.71;100.00
29909;BME280;36247;51.952;6.146;2022-09-09T06:07:02;100570.94;;;14.69;100.00
29909;BME280;36247;51.952;6.146;2022-09-09T06:09:28;100569.97;;;14.75;100.00
29909;BME280;36247;51.952;6.146;2022-09-09T06:11:55;100567.31;;;14.78;100.00
29909;BME280;36247;51.952;6.146;2022-09-09T06:14:22;100566.41;;;14.79;100.00
29909;BME280;36247;51.952;6.146;2022-09-09T06:16:49;100573.47;;;14.85;100.00
29909;BME280;36247;51.952;6.146;2022-09-09T06:19:19;100574.28;;;14.97;100.00
29909;BME280;36247;51.952;6.146;2022-09-09T06:21:46;100572.47;;;14.99;100.00
29909;BME280;36247;51.952;6.146;2022-09-09T06:24:13;100569.66;;;15.13;100.00
29909;BME280;36247;51.952;6.146;2022-09-09T06:26:42;100568.66;;;15.27;100.00
29909;BME280;36247;51.952;6.146;2022-09-09T06:29:12;100562.31;;;15.39;100.00
29909;BME280;36247;51.952;6.146;2022-09-09T06:31:39;100566.81;;;15.35;100.00
29909;BME280;36247;51.952;6.146;2022-09-09T06:34:14;100566.84;;;15.32;100.00
29909;BME280;36247;51.952;6.146;2022-09-09T06:36:44;100574.78;;;15.37;100.00
29909;BME280;36247;51.952;6.146;2022-09-09T06:39:11;100578.22;;;15.51;100.00
29909;BME280;36247;51.952;6.146;2022-09-09T06:41:38;100575.53;;;15.52;100.00
29909;BME280;36247;51.952;6.146;2022-09-09T06:44:05;100572.84;;;15.54;100.00
29909;BME280;36247;51.952;6.146;2022-09-09T06:46:39;100577.34;;;15.46;100.00
29909;BME280;36247;51.952;6.146;2022-09-09T06:49:05;100575.53;;;15.51;100.00
29909;BME280;36247;51.952;6.146;2022-09-09T06:51:36;100574.59;;;15.55;100.00
29909;BME280;36247;51.952;6.146;2022-09-09T06:54:04;100577.34;;;15.46;100.00
29909;BME280;36247;51.952;6.146;2022-09-09T06:56:31;100578.25;;;15.45;100.00
29909;BME280;36247;51.952;6.146;2022-09-09T06:59:00;100580.97;;;15.40;100.00
29909;BME280;36247;51.952;6.146;2022-09-09T07:01:33;100571.00;;;15.59;100.00
29909;BME280;36247;51.952;6.146;2022-09-09T07:04:03;100579.72;;;15.78;100.00
29909;BME280;36247;51.952;6.146;2022-09-09T07:06:38;100580.56;;;15.80;100.00
29909;BME280;36247;51.952;6.146;2022-09-09T07:09:10;100576.88;;;15.91;100.00
29909;BME280;36247;51.952;6.146;2022-09-09T07:11:48;100569.81;;;15.85;100.00
29909;BME280;36247;51.952;6.146;2022-09-09T07:14:15;100573.31;;;15.93;100.00
29909;BME280;36247;51.952;6.146;2022-09-09T07:16:45;100568.75;;;15.98;100.00
29909;BME280;36247;51.952;6.146;2022-09-09T07:19:12;100572.19;;;16.10;100.00
29909;BME280;36247;51.952;6.146;2022-09-09T07:21:40;100582.16;;;15.95;100.00
29909;BME280;36247;51.952;6.146;2022-09-09T07:24:07;100577.69;;;15.96;100.00
29909;BME280;36247;51.952;6.146;2022-09-09T07:28:55;100578.47;;;16.07;100.00
29909;BME280;36247;51.952;6.146;2022-09-09T07:31:27;100576.56;;;16.17;100.00
29909;BME280;36247;51.952;6.146;2022-09-09T07:33:56;100568.47;;;16.21;100.00
29909;BME280;36247;51.952;6.146;2022-09-09T07:36:24;100573.53;;;16.42;100.00
29909;BME280;36247;51.952;6.146;2022-09-09T07:38:54;100577.19;;;16.34;100.00
29909;BME280;36247;51.952;6.146;2022-09-09T07:41:23;100579.81;;;16.37;100.00
29909;BME280;36247;51.952;6.146;2022-09-09T07:43:50;100589.66;;;16.35;100.00
29909;BME280;36247;51.952;6.146;2022-09-09T07:46:21;100581.19;;;16.66;100.00
29909;BME280;36247;51.952;6.146;2022-09-09T07:48:49;100588.28;;;16.67;100.00
29909;BME280;36247;51.952;6.146;2022-09-09T07:51:28;100580.50;;;16.52;100.00
29909;BME280;36247;51.952;6.146;2022-09-09T07:54:00;100588.53;;;16.52;100.00
29909;BME280;36247;51.952;6.146;2022-09-09T07:56:29;100576.75;;;16.65;100.00
29909;BME280;36247;51.952;6.146;2022-09-09T07:58:56;100588.19;;;16.75;100.00
29909;BME280;36247;51.952;6.146;2022-09-09T08:01:29;100586.63;;;17.18;100.00
29909;BME280;36247;51.952;6.146;2022-09-09T08:04:00;100590.69;;;17.39;100.00
29909;BME280;36247;51.952;6.146;2022-09-09T08:06:29;100587.81;;;17.00;100.00
29909;BME280;36247;51.952;6.146;2022-09-09T08:08:55;100594.38;;;17.35;100.00
29909;BME280;36247;51.952;6.146;2022-09-09T08:11:24;100594.59;;;18.14;100.00
29909;BME280;36247;51.952;6.146;2022-09-09T08:13:51;100589.06;;;17.78;100.00
29909;BME280;36247;51.952;6.146;2022-09-09T08:16:22;100592.72;;;18.18;100.00
29909;BME280;36247;51.952;6.146;2022-09-09T08:18:49;100592.59;;;18.65;100.00
29909;BME280;36247;51.952;6.146;2022-09-09T08:21:17;100587.28;;;19.01;100.00
29909;BME280;36247;51.952;6.146;2022-09-09T08:23:45;100585.75;;;18.91;100.00
29909;BME280;36247;51.952;6.146;2022-09-09T08:26:13;100592.16;;;18.44;100.00
29909;BME280;36247;51.952;6.146;2022-09-09T08:28:41;100598.06;;;18.99;100.00
29909;BME280;36247;51.952;6.146;2022-09-09T08:31:09;100595.94;;;18.36;100.00
29909;BME280;36247;51.952;6.146;2022-09-09T08:33:36;100593.34;;;18.31;100.00
29909;BME280;36247;51.952;6.146;2022-09-09T08:36:06;100605.31;;;17.69;100.00
29909;BME280;36247;51.952;6.146;2022-09-09T08:38:32;100590.91;;;17.75;100.00
29909;BME280;36247;51.952;6.146;2022-09-09T08:43:48;100598.47;;;18.01;100.00
29909;BME280;36247;51.952;6.146;2022-09-09T08:46:29;100601.38;;;17.90;100.00
29909;BME280;36247;51.952;6.146;2022-09-09T08:49:21;100615.44;;;17.53;100.00
29909;BME280;36247;51.952;6.146;2022-09-09T08:51:53;100608.84;;;17.71;100.00
29909;BME280;36247;51.952;6.146;2022-09-09T08:54:21;100602.75;;;17.65;100.00
29909;BME280;36247;51.952;6.146;2022-09-09T08:56:47;100609.09;;;17.59;100.00
29909;BME280;36247;51.952;6.146;2022-09-09T08:59:16;100618.72;;;17.69;100.00
29909;BME280;36247;51.952;6.146;2022-09-09T09:02:15;100609.34;;;17.47;100.00
29909;BME280;36247;51.952;6.146;2022-09-09T09:07:37;100613.31;;;17.22;100.00
29909;BME280;36247;51.952;6.146;2022-09-09T09:12:44;100613.81;;;17.44;100.00
29909;BME280;36247;51.952;6.146;2022-09-09T09:15:20;100620.03;;;17.45;100.00
29909;BME280;36247;51.952;6.146;2022-09-09T09:17:49;100616.59;;;17.38;100.00
29909;BME280;36247;51.952;6.146;2022-09-09T09:20:19;100628.34;;;17.30;100.00
29909;BME280;36247;51.952;6.146;2022-09-09T09:22:50;100622.84;;;17.39;100.00
29909;BME280;36247;51.952;6.146;2022-09-09T09:25:19;100628.72;;;17.59;100.00
29909;BME280;36247;51.952;6.146;2022-09-09T09:28:10;100620.31;;;17.79;100.00
29909;BME280;36247;51.952;6.146;2022-09-09T09:30:52;100625.72;;;17.78;100.00
29909;BME280;36247;51.952;6.146;2022-09-09T09:35:51;100605.06;;;18.66;100.00
29909;BME280;36247;51.952;6.146;2022-09-09T09:38:24;100611.66;;;18.92;100.00
29909;BME280;36247;51.952;6.146;2022-09-09T09:40:58;100611.03;;;18.79;100.00
29909;BME280;36247;51.952;6.146;2022-09-09T09:43:29;100615.00;;;18.62;100.00
29909;BME280;36247;51.952;6.146;2022-09-09T09:45:57;100611.97;;;18.39;100.00
29909;BME280;36247;51.952;6.146;2022-09-09T09:48:26;100612.84;;;18.39;100.00
29909;BME280;36247;51.952;6.146;2022-09-09T09:53:30;100607.69;;;18.71;100.00
29909;BME280;36247;51.952;6.146;2022-09-09T09:56:02;100605.28;;;19.66;100.00
29909;BME280;36247;51.952;6.146;2022-09-09T09:58:32;100608.41;;;19.49;100.00
29909;BME280;36247;51.952;6.146;2022-09-09T10:01:01;100610.81;;;19.26;100.00
29909;BME280;36247;51.952;6.146;2022-09-09T10:03:31;100613.44;;;19.29;100.00
29909;BME280;36247;51.952;6.146;2022-09-09T10:05:58;100612.50;;;19.63;100.00
29909;BME280;36247;51.952;6.146;2022-09-09T10:08:25;100611.47;;;19.35;100.00
29909;BME280;36247;51.952;6.146;2022-09-09T10:19:30;100614.13;;;19.01;100.00
29909;BME280;36247;51.952;6.146;2022-09-09T10:29:44;100620.25;;;18.28;100.00
29909;BME280;36247;51.952;6.146;2022-09-09T10:34:58;100612.66;;;18.48;100.00
29909;BME280;36247;51.952;6.146;2022-09-09T10:40:26;100619.75;;;18.49;100.00
29909;BME280;36247;51.952;6.146;2022-09-09T10:43:01;100614.00;;;18.27;100.00
29909;BME280;36247;51.952;6.146;2022-09-09T10:45:35;100608.16;;;18.08;100.00
29909;BME280;36247;51.952;6.146;2022-09-09T10:48:23;100611.88;;;18.01;100.00
29909;BME280;36247;51.952;6.146;2022-09-09T10:54:17;100616.34;;;18.01;100.00
29909;BME280;36247;51.952;6.146;2022-09-09T10:56:55;100606.50;;;18.01;100.00
29909;BME280;36247;51.952;6.146;2022-09-09T10:59:27;100610.13;;;17.98;100.00
29909;BME280;36247;51.952;6.146;2022-09-09T11:02:26;100617.09;;;18.07;100.00
29909;BME280;36247;51.952;6.146;2022-09-09T11:05:00;100613.34;;;18.16;100.00
29909;BME280;36247;51.952;6.146;2022-09-09T11:10:15;100604.88;;;18.75;100.00
29909;BME280;36247;51.952;6.146;2022-09-09T11:12:45;100605.28;;;18.96;100.00
29909;BME280;36247;51.952;6.146;2022-09-09T11:15:29;100605.53;;;18.85;100.00
29909;BME280;36247;51.952;6.146;2022-09-09T11:18:00;100604.88;;;18.75;100.00
29909;BME280;36247;51.952;6.146;2022-09-09T11:20:27;100610.59;;;18.60;100.00
29909;BME280;36247;51.952;6.146;2022-09-09T11:23:13;100607.13;;;18.55;100.00
29909;BME280;36247;51.952;6.146;2022-09-09T11:25:51;100601.56;;;18.23;100.00
29909;BME280;36247;51.952;6.146;2022-09-09T11:38:49;100617.19;;;17.56;100.00
29909;BME280;36247;51.952;6.146;2022-09-09T11:41:19;100613.47;;;17.65;100.00
29909;BME280;36247;51.952;6.146;2022-09-09T11:43:52;100612.44;;;17.70;100.00
29909;BME280;36247;51.952;6.146;2022-09-09T11:46:32;100621.47;;;17.66;100.00
29909;BME280;36247;51.952;6.146;2022-09-09T11:49:03;100635.00;;;17.57;100.00
29909;BME280;36247;51.952;6.146;2022-09-09T11:51:31;100648.53;;;16.96;100.00
29909;BME280;36247;51.952;6.146;2022-09-09T11:56:45;100637.59;;;16.49;100.00
29909;BME280;36247;51.952;6.146;2022-09-09T11:59:23;100638.84;;;16.86;100.00
29909;BME280;36247;51.952;6.146;2022-09-09T12:01:59;100632.75;;;16.76;100.00
29909;BME280;36247;51.952;6.146;2022-09-09T12:05:30;100636.38;;;16.70;100.00
29909;BME280;36247;51.952;6.146;2022-09-09T12:12:48;100626.91;;;17.10;100.00
29909;BME280;36247;51.952;6.146;2022-09-09T12:15:24;100632.25;;;17.10;100.00
29909;BME280;36247;51.952;6.146;2022-09-09T12:17:52;100623.91;;;17.28;100.00
29909;BME280;36247;51.952;6.146;2022-09-09T12:20:31;100626.78;;;17.16;100.00
29909;BME280;36247;51.952;6.146;2022-09-09T12:28:08;100635.00;;;17.05;100.00
29909;BME280;36247;51.952;6.146;2022-09-09T12:31:28;100629.75;;;16.99;100.00
29909;BME280;36247;51.952;6.146;2022-09-09T12:33:37;100619.25;;;16.84;100.00
29909;BME280;36247;51.952;6.146;2022-09-09T12:36:05;100618.44;;;16.79;100.00
29909;BME280;36247;51.952;6.146;2022-09-09T12:38:39;100615.84;;;17.30;100.00
29909;BME280;36247;51.952;6.146;2022-09-09T12:41:05;100608.81;;;17.24;100.00
29909;BME280;36247;51.952;6.146;2022-09-09T12:43:31;100618.69;;;17.21;100.00
29909;BME280;36247;51.952;6.146;2022-09-09T12:46:02;100618.28;;;17.44;100.00
29909;BME280;36247;51.952;6.146;2022-09-09T12:48:46;100610.47;;;17.33;100.00
29909;BME280;36247;51.952;6.146;2022-09-09T12:51:32;100612.09;;;17.89;100.00
29909;BME280;36247;51.952;6.146;2022-09-09T12:53:59;100602.97;;;17.99;100.00
29909;BME280;36247;51.952;6.146;2022-09-09T12:56:27;100606.19;;;18.15;100.00
29909;BME280;36247;51.952;6.146;2022-09-09T12:58:56;100602.44;;;18.24;100.00
29909;BME280;36247;51.952;6.146;2022-09-09T13:01:25;100593.97;;;18.44;100.00
29909;BME280;36247;51.952;6.146;2022-09-09T13:03:52;100584.59;;;18.63;100.00
29909;BME280;36247;51.952;6.146;2022-09-09T13:06:25;100587.59;;;18.48;100.00
29909;BME280;36247;51.952;6.146;2022-09-09T13:08:52;100590.22;;;18.10;100.00
29909;BME280;36247;51.952;6.146;2022-09-09T13:11:26;100592.41;;;17.88;100.00
29909;BME280;36247;51.952;6.146;2022-09-09T13:13:56;100581.69;;;17.91;100.00
29909;BME280;36247;51.952;6.146;2022-09-09T13:16:26;100593.03;;;17.59;100.00
29909;BME280;36247;51.952;6.146;2022-09-09T13:18:55;100602.94;;;18.01;100.00
29909;BME280;36247;51.952;6.146;2022-09-09T13:21:31;100594.41;;;18.63;100.00
29909;BME280;36247;51.952;6.146;2022-09-09T13:23:57;100578.44;;;18.96;100.00
29909;BME280;36247;51.952;6.146;2022-09-09T13:26:28;100575.84;;;18.93;100.00
29909;BME280;36247;51.952;6.146;2022-09-09T13:29:08;100577.59;;;18.94;100.00
29909;BME280;36247;51.952;6.146;2022-09-09T13:33:58;100566.56;;;19.06;100.00
29909;BME280;36247;51.952;6.146;2022-09-09T13:36:33;100578.97;;;19.10;100.00
29909;BME280;36247;51.952;6.146;2022-09-09T13:39:03;100573.44;;;19.16;100.00
29909;BME280;36247;51.952;6.146;2022-09-09T13:41:41;100562.00;;;20.07;100.00
29909;BME280;36247;51.952;6.146;2022-09-09T13:44:39;100569.47;;;18.97;100.00
29909;BME280;36247;51.952;6.146;2022-09-09T13:47:18;100569.06;;;19.14;100.00
29909;BME280;36247;51.952;6.146;2022-09-09T13:49:45;100573.16;;;18.93;100.00
29909;BME280;36247;51.952;6.146;2022-09-09T13:52:13;100575.16;;;19.20;100.00
29909;BME280;36247;51.952;6.146;2022-09-09T13:54:40;100575.84;;;19.62;100.00
29909;BME280;36247;51.952;6.146;2022-09-09T13:57:13;100575.34;;;19.80;100.00
29909;BME280;36247;51.952;6.146;2022-09-09T13:59:40;100568.31;;;19.42;100.00
29909;BME280;36247;51.952;6.146;2022-09-09T14:02:07;100569.44;;;18.98;100.00
29909;BME280;36247;51.952;6.146;2022-09-09T14:04:32;100562.69;;;18.80;100.00
29909;BME280;36247;51.952;6.146;2022-09-09T14:07:01;100571.97;;;18.67;100.00
29909;BME280;36247;51.952;6.146;2022-09-09T14:09:26;100582.78;;;18.25;100.00
29909;BME280;36247;51.952;6.146;2022-09-09T14:11:52;100601.94;;;17.59;100.00
29909;BME280;36247;51.952;6.146;2022-09-09T14:14:17;100584.88;;;17.17;100.00
29909;BME280;36247;51.952;6.146;2022-09-09T14:16:44;100586.75;;;17.10;100.00
29909;BME280;36247;51.952;6.146;2022-09-09T14:19:09;100592.28;;;17.01;100.00
29909;BME280;36247;51.952;6.146;2022-09-09T14:21:35;100591.59;;;16.85;100.00
29909;BME280;36247;51.952;6.146;2022-09-09T14:24:01;100598.03;;;16.73;100.00
29909;BME280;36247;51.952;6.146;2022-09-09T14:26:26;100580.03;;;16.83;100.00
29909;BME280;36247;51.952;6.146;2022-09-09T14:28:53;100585.41;;;16.83;100.00
29909;BME280;36247;51.952;6.146;2022-09-09T14:31:19;100583.50;;;16.91;100.00
29909;BME280;36247;51.952;6.146;2022-09-09T14:33:45;100581.09;;;17.27;100.00
29909;BME280;36247;51.952;6.146;2022-09-09T14:36:10;100581.03;;;17.32;100.00
29909;BME280;36247;51.952;6.146;2022-09-09T14:38:37;100581.78;;;17.38;100.00
29909;BME280;36247;51.952;6.146;2022-09-09T14:41:06;100584.25;;;17.49;100.00